Terminal Aerodrome Forecast
Issued by NWS

Home | Current Version | Previous Version | Text Only | Print | Product List | Glossary On
Versions: 1 2 3 4 5 6 7 8 9 10 11 12 13 14 15 16 17 18 19 20
000
FTUS43 KDTX 281900 AAA
TAFDET
TAF AMD
KDET 281934Z 2820/2918 36012KT P6SM SCT035 OVC060
     FM282200 33010KT P6SM SCT050
     FM290600 30004KT P6SM SCT050 BKN120 OVC250
     FM291400 28010KT P6SM BKN060 BKN120 OVC250=

USA.gov is the U.S. government's official web portal to all federal, state and local government web resources and services.